^^
Your Local Weather - Clay, NY Station Historical Data
Daily Summary for February 24, 2018 Units:  Both    English   Metric
« Previous Day
Next Day »
Daily Weekly Monthly Yearly Custom
  High: Low: Average:
Temperature: 44.0 °F /  6.7 °C 29.8 °F /  -1.2 °C 38.5 °F /  3.6 °C
Dew Point: 41.8 °F /  5.4 °C 26.1 °F /  -3.3 °C 32.3 °F /  0.2 °C
Humidity: 92% 66% 79%
Wind Speed: 5.0mph /  8km/h - 1.5mph /  2.4km/h
Wind Gust: 11.0mph /  17.7km/h - -
Wind- - NW
Pressure: 30.23 in /  1023.6 hPa 30.10 in /  1019.2 hPa -
Precipitation: 0.01 in /  0.25 mm    
Historical Graphs
 
 
Tabular Data for February 24, 2018
Time Temperature Dew Point Pressure Wind Wind Speed Wind Gust Humidity Rainfall Rate (Hourly) solar
00:00 44.0 °F /  6.7 °C 41.8 °F /  5.4 °C 30.10in /  1019.2hPa WNW 2.0mph /  3.2km/h 2.0mph /  3.2km/h 92% 0.00in /  0mm 0 W/m2
00:06 43.9 °F /  6.6 °C 41.7 °F /  5.4 °C 30.11in /  1019.5hPa NW 3.0mph /  4.8km/h 6.0mph /  9.7km/h 92% 0.00in /  0mm 0 W/m2
00:12 43.9 °F /  6.6 °C 41.7 °F /  5.4 °C 30.11in /  1019.5hPa WSW 3.0mph /  4.8km/h 7.0mph /  11.3km/h 92% 0.00in /  0mm 0 W/m2
00:18 43.7 °F /  6.5 °C 41.5 °F /  5.3 °C 30.11in /  1019.5hPa WNW 3.0mph /  4.8km/h 7.0mph /  11.3km/h 92% 0.00in /  0mm 0 W/m2
00:24 43.6 °F /  6.4 °C 41.4 °F /  5.2 °C 30.11in /  1019.5hPa WNW 3.0mph /  4.8km/h 3.0mph /  4.8km/h 92% 0.00in /  0mm 0 W/m2
00:30 43.5 °F /  6.4 °C 41.3 °F /  5.2 °C 30.11in /  1019.5hPa WNW 3.0mph /  4.8km/h 3.0mph /  4.8km/h 92% 0.00in /  0mm 0 W/m2
00:36 43.4 °F /  6.3 °C 41.2 °F /  5.1 °C 30.11in /  1019.5hPa WNW 2.0mph /  3.2km/h 5.0mph /  8km/h 92% 0.00in /  0mm 0 W/m2
00:42 43.3 °F /  6.3 °C 41.1 °F /  5.1 °C 30.11in /  1019.5hPa WNW 2.0mph /  3.2km/h 2.0mph /  3.2km/h 92% 0.00in /  0mm 0 W/m2
00:48 43.3 °F /  6.3 °C 41.1 °F /  5.1 °C 30.11in /  1019.5hPa WNW 2.0mph /  3.2km/h 7.0mph /  11.3km/h 92% 0.00in /  0mm 0 W/m2
00:54 43.3 °F /  6.3 °C 41.1 °F /  5.1 °C 30.11in /  1019.5hPa West 4.0mph /  6.4km/h 6.0mph /  9.7km/h 92% 0.00in /  0mm 0 W/m2
01:00 43.3 °F /  6.3 °C 41.1 °F /  5.1 °C 30.11in /  1019.5hPa WNW 5.0mph /  8km/h 6.0mph /  9.7km/h 92% 0.00in /  0mm 0 W/m2
01:06 43.3 °F /  6.3 °C 41.1 °F /  5.1 °C 30.11in /  1019.5hPa WNW 5.0mph /  8km/h 6.0mph /  9.7km/h 92% 0.00in /  0mm 0 W/m2
01:12 43.3 °F /  6.3 °C 40.8 °F /  4.9 °C 30.11in /  1019.5hPa WNW 4.0mph /  6.4km/h 5.0mph /  8km/h 91% 0.00in /  0mm 0 W/m2
01:18 43.3 °F /  6.3 °C 40.8 °F /  4.9 °C 30.12in /  1019.9hPa NNW 4.0mph /  6.4km/h 7.0mph /  11.3km/h 91% 0.00in /  0mm 0 W/m2
01:24 43.3 °F /  6.3 °C 40.6 °F /  4.8 °C 30.12in /  1019.9hPa WNW 4.0mph /  6.4km/h 4.0mph /  6.4km/h 90% 0.00in /  0mm 0 W/m2
01:30 43.3 °F /  6.3 °C 40.6 °F /  4.8 °C 30.12in /  1019.9hPa WNW 4.0mph /  6.4km/h 4.0mph /  6.4km/h 90% 0.00in /  0mm 0 W/m2
01:36 43.3 °F /  6.3 °C 40.3 °F /  4.6 °C 30.13in /  1020.2hPa WNW 4.0mph /  6.4km/h 5.0mph /  8km/h 89% 0.00in /  0mm 0 W/m2
01:42 43.2 °F /  6.2 °C 40.2 °F /  4.6 °C 30.13in /  1020.2hPa WNW 4.0mph /  6.4km/h 4.0mph /  6.4km/h 89% 0.00in /  0mm 0 W/m2
01:48 43.1 °F /  6.2 °C 39.8 °F /  4.3 °C 30.13in /  1020.2hPa West 5.0mph /  8km/h 8.0mph /  12.9km/h 88% 0.00in /  0mm 0 W/m2
01:54 42.9 °F /  6.1 °C 39.6 °F /  4.2 °C 30.13in /  1020.2hPa WNW 4.0mph /  6.4km/h 5.0mph /  8km/h 88% 0.00in /  0mm 0 W/m2
02:00 42.8 °F /  6 °C 39.2 °F /  4 °C 30.13in /  1020.2hPa WNW 3.0mph /  4.8km/h 3.0mph /  4.8km/h 87% 0.00in /  0mm 0 W/m2
02:06 42.7 °F /  5.9 °C 39.1 °F /  3.9 °C 30.13in /  1020.2hPa NW 3.0mph /  4.8km/h 5.0mph /  8km/h 87% 0.00in /  0mm 0 W/m2
02:12 42.6 °F /  5.9 °C 39.0 °F /  3.9 °C 30.13in /  1020.2hPa WNW 3.0mph /  4.8km/h 4.0mph /  6.4km/h 87% 0.00in /  0mm 0 W/m2
02:20 42.6 °F /  5.9 °C 38.7 °F /  3.7 °C 30.13in /  1020.2hPa WNW 3.0mph /  4.8km/h 3.0mph /  4.8km/h 86% 0.00in /  0mm 0 W/m2
02:26 42.5 °F /  5.8 °C 38.6 °F /  3.7 °C 30.13in /  1020.2hPa WNW 3.0mph /  4.8km/h 4.0mph /  6.4km/h 86% 0.00in /  0mm 0 W/m2
02:32 42.4 °F /  5.8 °C 38.2 °F /  3.4 °C 30.13in /  1020.2hPa WNW 3.0mph /  4.8km/h 4.0mph /  6.4km/h 85% 0.00in /  0mm 0 W/m2
02:38 42.3 °F /  5.7 °C 38.1 °F /  3.4 °C 30.13in /  1020.2hPa WNW 3.0mph /  4.8km/h 6.0mph /  9.7km/h 85% 0.00in /  0mm 0 W/m2
02:44 42.2 °F /  5.7 °C 38.0 °F /  3.3 °C 30.13in /  1020.2hPa WNW 2.0mph /  3.2km/h 3.0mph /  4.8km/h 85% 0.00in /  0mm 0 W/m2
02:50 42.1 °F /  5.6 °C 37.9 °F /  3.3 °C 30.13in /  1020.2hPa NW 2.0mph /  3.2km/h 2.0mph /  3.2km/h 85% 0.00in /  0mm 0 W/m2
02:56 42.1 °F /  5.6 °C 37.9 °F /  3.3 °C 30.13in /  1020.2hPa WNW 2.0mph /  3.2km/h 2.0mph /  3.2km/h 85% 0.00in /  0mm 0 W/m2
03:02 42.0 °F /  5.6 °C 37.8 °F /  3.2 °C 30.13in /  1020.2hPa NW 2.0mph /  3.2km/h 2.0mph /  3.2km/h 85% 0.00in /  0mm 0 W/m2
03:10 41.9 °F /  5.5 °C 37.7 °F /  3.2 °C 30.13in /  1020.2hPa NW 1.0mph /  1.6km/h 1.0mph /  1.6km/h 85% 0.00in /  0mm 0 W/m2
03:16 41.8 °F /  5.4 °C 37.6 °F /  3.1 °C 30.13in /  1020.2hPa NW 1.0mph /  1.6km/h 2.0mph /  3.2km/h 85% 0.00in /  0mm 0 W/m2
03:22 41.8 °F /  5.4 °C 37.3 °F /  2.9 °C 30.13in /  1020.2hPa NW 1.0mph /  1.6km/h 2.0mph /  3.2km/h 84% 0.00in /  0mm 0 W/m2
03:28 41.8 °F /  5.4 °C 37.3 °F /  2.9 °C 30.13in /  1020.2hPa NW 1.0mph /  1.6km/h 2.0mph /  3.2km/h 84% 0.00in /  0mm 0 W/m2
03:34 41.7 °F /  5.4 °C 37.5 °F /  3.1 °C 30.13in /  1020.2hPa NW 1.0mph /  1.6km/h 2.0mph /  3.2km/h 85% 0.00in /  0mm 0 W/m2
03:40 41.7 °F /  5.4 °C 37.5 °F /  3.1 °C 30.13in /  1020.2hPa NW 1.0mph /  1.6km/h 1.0mph /  1.6km/h 85% 0.00in /  0mm 0 W/m2
03:46 41.6 °F /  5.3 °C 37.4 °F /  3 °C 30.13in /  1020.2hPa NW 1.0mph /  1.6km/h 2.0mph /  3.2km/h 85% 0.00in /  0mm 0 W/m2
04:04 41.5 °F /  5.3 °C 37.0 °F /  2.8 °C 30.13in /  1020.2hPa NW 1.0mph /  1.6km/h 1.0mph /  1.6km/h 84% 0.00in /  0mm 0 W/m2
04:10 41.5 °F /  5.3 °C 37.0 °F /  2.8 °C 30.14in /  1020.5hPa NW 1.0mph /  1.6km/h 1.0mph /  1.6km/h 84% 0.00in /  0mm 0 W/m2
04:16 41.5 °F /  5.3 °C 37.0 °F /  2.8 °C 30.14in /  1020.5hPa NW 1.0mph /  1.6km/h 1.0mph /  1.6km/h 84% 0.00in /  0mm 0 W/m2
04:22 41.4 °F /  5.2 °C 36.9 °F /  2.7 °C 30.14in /  1020.5hPa NW 1.0mph /  1.6km/h 1.0mph /  1.6km/h 84% 0.00in /  0mm 0 W/m2
04:28 41.4 °F /  5.2 °C 36.9 °F /  2.7 °C 30.14in /  1020.5hPa Calm   1.0mph /  1.6km/h 84% 0.00in /  0mm 0 W/m2
04:34 41.3 °F /  5.2 °C 36.8 °F /  2.7 °C 30.14in /  1020.5hPa Calm   1.0mph /  1.6km/h 84% 0.00in /  0mm 0 W/m2
04:40 41.3 °F /  5.2 °C 36.8 °F /  2.7 °C 30.15in /  1020.9hPa NW 1.0mph /  1.6km/h 1.0mph /  1.6km/h 84% 0.00in /  0mm 0 W/m2
04:46 41.3 °F /  5.2 °C 37.1 °F /  2.8 °C 30.15in /  1020.9hPa NW 1.0mph /  1.6km/h 1.0mph /  1.6km/h 85% 0.00in /  0mm 0 W/m2
04:52 41.3 °F /  5.2 °C 37.1 °F /  2.8 °C 30.15in /  1020.9hPa NW 1.0mph /  1.6km/h 1.0mph /  1.6km/h 85% 0.00in /  0mm 0 W/m2
04:58 41.2 °F /  5.1 °C 37.0 °F /  2.8 °C 30.15in /  1020.9hPa NW 1.0mph /  1.6km/h 1.0mph /  1.6km/h 85% 0.00in /  0mm 0 W/m2
05:04 41.3 °F /  5.2 °C 37.1 °F /  2.8 °C 30.15in /  1020.9hPa NW 1.0mph /  1.6km/h 1.0mph /  1.6km/h 85% 0.00in /  0mm 0 W/m2
05:10 41.3 °F /  5.2 °C 37.4 °F /  3 °C 30.15in /  1020.9hPa NW 2.0mph /  3.2km/h 2.0mph /  3.2km/h 86% 0.00in /  0mm 0 W/m2
05:16 41.3 °F /  5.2 °C 37.4 °F /  3 °C 30.16in /  1021.2hPa WNW 2.0mph /  3.2km/h 3.0mph /  4.8km/h 86% 0.00in /  0mm 0 W/m2
05:22 41.4 °F /  5.2 °C 37.5 °F /  3.1 °C 30.16in /  1021.2hPa NW 3.0mph /  4.8km/h 4.0mph /  6.4km/h 86% 0.00in /  0mm 0 W/m2
05:28 41.3 °F /  5.2 °C 37.4 °F /  3 °C 30.16in /  1021.2hPa NW 4.0mph /  6.4km/h 6.0mph /  9.7km/h 86% 0.00in /  0mm 0 W/m2
05:34 41.1 °F /  5.1 °C 36.9 °F /  2.7 °C 30.16in /  1021.2hPa WNW 5.0mph /  8km/h 6.0mph /  9.7km/h 85% 0.00in /  0mm 0 W/m2
05:40 40.8 °F /  4.9 °C 36.6 °F /  2.6 °C 30.16in /  1021.2hPa NW 5.0mph /  8km/h 5.0mph /  8km/h 85% 0.00in /  0mm 0 W/m2
05:46 40.3 °F /  4.6 °C 35.8 °F /  2.1 °C 30.17in /  1021.6hPa NW 5.0mph /  8km/h 11.0mph /  17.7km/h 84% 0.00in /  0mm 0 W/m2
05:52 39.9 °F /  4.4 °C 35.5 °F /  1.9 °C 30.17in /  1021.6hPa West 4.0mph /  6.4km/h 4.0mph /  6.4km/h 84% 0.00in /  0mm 0 W/m2
05:58 39.6 °F /  4.2 °C 35.2 °F /  1.8 °C 30.17in /  1021.6hPa WNW 4.0mph /  6.4km/h 5.0mph /  8km/h 84% 0.00in /  0mm 0 W/m2
06:04 39.4 °F /  4.1 °C 34.7 °F /  1.5 °C 30.17in /  1021.6hPa NW 4.0mph /  6.4km/h 7.0mph /  11.3km/h 83% 0.00in /  0mm 0 W/m2
06:10 39.1 °F /  3.9 °C 34.4 °F /  1.3 °C 30.17in /  1021.6hPa NW 3.0mph /  4.8km/h 3.0mph /  4.8km/h 83% 0.00in /  0mm 0 W/m2
06:16 38.8 °F /  3.8 °C 33.8 °F /  1 °C 30.17in /  1021.6hPa WNW 3.0mph /  4.8km/h 6.0mph /  9.7km/h 82% 0.00in /  0mm 0 W/m2
06:22 38.7 °F /  3.7 °C 33.1 °F /  0.6 °C 30.18in /  1021.9hPa West 4.0mph /  6.4km/h 8.0mph /  12.9km/h 80% 0.00in /  0mm 0 W/m2
06:28 38.6 °F /  3.7 °C 32.6 °F /  0.3 °C 30.19in /  1022.2hPa WNW 4.0mph /  6.4km/h 8.0mph /  12.9km/h 79% 0.00in /  0mm 0 W/m2
06:34 38.6 °F /  3.7 °C 32.3 °F /  0.2 °C 30.18in /  1021.9hPa NNW 3.0mph /  4.8km/h 5.0mph /  8km/h 78% 0.00in /  0mm 0 W/m2
06:40 38.4 °F /  3.6 °C 32.1 °F /  0.1 °C 30.19in /  1022.2hPa NW 2.0mph /  3.2km/h 2.0mph /  3.2km/h 78% 0.00in /  0mm 0 W/m2
06:46 38.3 °F /  3.5 °C 31.7 °F /  -0.2 °C 30.19in /  1022.2hPa NW 2.0mph /  3.2km/h 3.0mph /  4.8km/h 77% 0.00in /  0mm 0 W/m2
06:52 38.3 °F /  3.5 °C 32.0 °F /  0 °C 30.19in /  1022.2hPa NW 2.0mph /  3.2km/h 2.0mph /  3.2km/h 78% 0.00in /  0mm 0 W/m2
06:58 38.2 °F /  3.4 °C 31.6 °F /  -0.2 °C 30.19in /  1022.2hPa NW 2.0mph /  3.2km/h 3.0mph /  4.8km/h 77% 0.00in /  0mm 0 W/m2
07:04 38.2 °F /  3.4 °C 31.6 °F /  -0.2 °C 30.19in /  1022.2hPa WNW 3.0mph /  4.8km/h 4.0mph /  6.4km/h 77% 0.00in /  0mm 5 W/m2
07:10 38.1 °F /  3.4 °C 31.8 °F /  -0.1 °C 30.20in /  1022.6hPa WNW 2.0mph /  3.2km/h 2.0mph /  3.2km/h 78% 0.00in /  0mm 5 W/m2
07:16 38.1 °F /  3.4 °C 31.8 °F /  -0.1 °C 30.20in /  1022.6hPa WNW 2.0mph /  3.2km/h 3.0mph /  4.8km/h 78% 0.00in /  0mm 7 W/m2
07:22 38.1 °F /  3.4 °C 31.8 °F /  -0.1 °C 30.20in /  1022.6hPa NW 2.0mph /  3.2km/h 6.0mph /  9.7km/h 78% 0.00in /  0mm 12 W/m2
07:28 38.0 °F /  3.3 °C 31.7 °F /  -0.2 °C 30.20in /  1022.6hPa NW 2.0mph /  3.2km/h 6.0mph /  9.7km/h 78% 0.00in /  0mm 18 W/m2
07:34 38.0 °F /  3.3 °C 31.7 °F /  -0.2 °C 30.20in /  1022.6hPa NW 2.0mph /  3.2km/h 4.0mph /  6.4km/h 78% 0.00in /  0mm 21 W/m2
07:40 38.0 °F /  3.3 °C 31.7 °F /  -0.2 °C 30.21in /  1022.9hPa NW 2.0mph /  3.2km/h 2.0mph /  3.2km/h 78% 0.00in /  0mm 25 W/m2
07:46 38.0 °F /  3.3 °C 31.7 °F /  -0.2 °C 30.21in /  1022.9hPa WNW 2.0mph /  3.2km/h 4.0mph /  6.4km/h 78% 0.00in /  0mm 33 W/m2
07:52 38.0 °F /  3.3 °C 31.7 °F /  -0.2 °C 30.20in /  1022.6hPa WNW 2.0mph /  3.2km/h 3.0mph /  4.8km/h 78% 0.00in /  0mm 39 W/m2
07:58 38.1 °F /  3.4 °C 31.8 °F /  -0.1 °C 30.20in /  1022.6hPa WNW 2.0mph /  3.2km/h 3.0mph /  4.8km/h 78% 0.00in /  0mm 47 W/m2
08:04 38.1 °F /  3.4 °C 31.8 °F /  -0.1 °C 30.20in /  1022.6hPa WNW 2.0mph /  3.2km/h 4.0mph /  6.4km/h 78% 0.00in /  0mm 56 W/m2
08:10 38.2 °F /  3.4 °C 31.9 °F /  -0.1 °C 30.20in /  1022.6hPa West 2.0mph /  3.2km/h 3.0mph /  4.8km/h 78% 0.00in /  0mm 65 W/m2
08:16 38.2 °F /  3.4 °C 31.9 °F /  -0.1 °C 30.20in /  1022.6hPa NW 2.0mph /  3.2km/h 5.0mph /  8km/h 78% 0.00in /  0mm 72 W/m2
08:22 38.3 °F /  3.5 °C 32.0 °F /  0 °C 30.20in /  1022.6hPa NW 2.0mph /  3.2km/h 3.0mph /  4.8km/h 78% 0.00in /  0mm 83 W/m2
08:28 38.4 °F /  3.6 °C 32.1 °F /  0.1 °C 30.20in /  1022.6hPa NW 1.0mph /  1.6km/h 3.0mph /  4.8km/h 78% 0.00in /  0mm 104 W/m2
08:34 38.6 °F /  3.7 °C 32.3 °F /  0.2 °C 30.19in /  1022.2hPa NNW 1.0mph /  1.6km/h 2.0mph /  3.2km/h 78% 0.00in /  0mm 123 W/m2
08:40 38.8 °F /  3.8 °C 32.5 °F /  0.3 °C 30.19in /  1022.2hPa WNW 1.0mph /  1.6km/h 1.0mph /  1.6km/h 78% 0.00in /  0mm 192 W/m2
08:46 38.9 °F /  3.8 °C 32.3 °F /  0.2 °C 30.19in /  1022.2hPa NW 2.0mph /  3.2km/h 3.0mph /  4.8km/h 77% 0.00in /  0mm 107 W/m2
08:52 38.8 °F /  3.8 °C 32.2 °F /  0.1 °C 30.20in /  1022.6hPa WNW 2.0mph /  3.2km/h 3.0mph /  4.8km/h 77% 0.00in /  0mm 91 W/m2
08:58 38.7 °F /  3.7 °C 32.1 °F /  0.1 °C 30.20in /  1022.6hPa NW 3.0mph /  4.8km/h 4.0mph /  6.4km/h 77% 0.00in /  0mm 74 W/m2
09:04 38.7 °F /  3.7 °C 32.1 °F /  0.1 °C 30.20in /  1022.6hPa WNW 2.0mph /  3.2km/h 3.0mph /  4.8km/h 77% 0.00in /  0mm 102 W/m2
09:10 38.8 °F /  3.8 °C 32.2 °F /  0.1 °C 30.21in /  1022.9hPa WNW 2.0mph /  3.2km/h 2.0mph /  3.2km/h 77% 0.00in /  0mm 125 W/m2
09:16 39.0 °F /  3.9 °C 32.4 °F /  0.2 °C 30.21in /  1022.9hPa NNW 2.0mph /  3.2km/h 2.0mph /  3.2km/h 77% 0.00in /  0mm 186 W/m2
09:22 39.3 °F /  4.1 °C 32.7 °F /  0.4 °C 30.20in /  1022.6hPa NNW 2.0mph /  3.2km/h 3.0mph /  4.8km/h 77% 0.00in /  0mm 211 W/m2
09:28 39.4 °F /  4.1 °C 32.1 °F /  0.1 °C 30.20in /  1022.6hPa NNW 4.0mph /  6.4km/h 5.0mph /  8km/h 75% 0.00in /  0mm 130 W/m2
09:34 39.4 °F /  4.1 °C 32.1 °F /  0.1 °C 30.20in /  1022.6hPa WNW 3.0mph /  4.8km/h 3.0mph /  4.8km/h 75% 0.00in /  0mm 107 W/m2
09:40 39.4 °F /  4.1 °C 31.5 °F /  -0.3 °C 30.21in /  1022.9hPa NNW 2.0mph /  3.2km/h 2.0mph /  3.2km/h 73% 0.00in /  0mm 130 W/m2
09:46 39.7 °F /  4.3 °C 32.1 °F /  0.1 °C 30.21in /  1022.9hPa NNW 2.0mph /  3.2km/h 2.0mph /  3.2km/h 74% 0.00in /  0mm 123 W/m2
09:52 39.7 °F /  4.3 °C 31.4 °F /  -0.3 °C 30.21in /  1022.9hPa WNW 2.0mph /  3.2km/h 4.0mph /  6.4km/h 72% 0.00in /  0mm 146 W/m2
09:58 39.8 °F /  4.3 °C 31.2 °F /  -0.4 °C 30.21in /  1022.9hPa WNW 2.0mph /  3.2km/h 4.0mph /  6.4km/h 71% 0.00in /  0mm 167 W/m2
10:04 39.8 °F /  4.3 °C 30.5 °F /  -0.8 °C 30.22in /  1023.2hPa NW 3.0mph /  4.8km/h 5.0mph /  8km/h 69% 0.00in /  0mm 202 W/m2
10:10 40.0 °F /  4.4 °C 30.6 °F /  -0.8 °C 30.22in /  1023.2hPa WNW 4.0mph /  6.4km/h 4.0mph /  6.4km/h 69% 0.00in /  0mm 181 W/m2
10:16 40.1 °F /  4.5 °C 31.4 °F /  -0.3 °C 30.22in /  1023.2hPa NW 3.0mph /  4.8km/h 4.0mph /  6.4km/h 71% 0.00in /  0mm 211 W/m2
10:22 40.4 °F /  4.7 °C 31.0 °F /  -0.6 °C 30.22in /  1023.2hPa WNW 2.0mph /  3.2km/h 3.0mph /  4.8km/h 69% 0.00in /  0mm 179 W/m2
10:28 40.3 °F /  4.6 °C 30.9 °F /  -0.6 °C 30.22in /  1023.2hPa WNW 3.0mph /  4.8km/h 4.0mph /  6.4km/h 69% 0.00in /  0mm 204 W/m2
10:34 40.3 °F /  4.6 °C 31.3 °F /  -0.4 °C 30.22in /  1023.2hPa NNW 3.0mph /  4.8km/h 3.0mph /  4.8km/h 70% 0.00in /  0mm 237 W/m2
10:40 40.3 °F /  4.6 °C 30.9 °F /  -0.6 °C 30.22in /  1023.2hPa North 3.0mph /  4.8km/h 4.0mph /  6.4km/h 69% 0.00in /  0mm 207 W/m2
10:46 40.2 °F /  4.6 °C 30.8 °F /  -0.7 °C 30.23in /  1023.6hPa NW 4.0mph /  6.4km/h 5.0mph /  8km/h 69% 0.00in /  0mm 156 W/m2
10:52 40.0 °F /  4.4 °C 30.6 °F /  -0.8 °C 30.23in /  1023.6hPa NNW 4.0mph /  6.4km/h 4.0mph /  6.4km/h 69% 0.00in /  0mm 179 W/m2
10:58 40.1 °F /  4.5 °C 31.1 °F /  -0.5 °C 30.22in /  1023.2hPa NNW 3.0mph /  4.8km/h 4.0mph /  6.4km/h 70% 0.00in /  0mm 142 W/m2
11:04 39.9 °F /  4.4 °C 30.9 °F /  -0.6 °C 30.22in /  1023.2hPa NW 3.0mph /  4.8km/h 4.0mph /  6.4km/h 70% 0.00in /  0mm 160 W/m2
11:10 40.0 °F /  4.4 °C 31.0 °F /  -0.6 °C 30.22in /  1023.2hPa WNW 3.0mph /  4.8km/h 3.0mph /  4.8km/h 70% 0.00in /  0mm 151 W/m2
11:16 40.0 °F /  4.4 °C 31.4 °F /  -0.3 °C 30.22in /  1023.2hPa NW 2.0mph /  3.2km/h 3.0mph /  4.8km/h 71% 0.00in /  0mm 167 W/m2
11:22 40.0 °F /  4.4 °C 31.0 °F /  -0.6 °C 30.22in /  1023.2hPa NNW 2.0mph /  3.2km/h 4.0mph /  6.4km/h 70% 0.00in /  0mm 200 W/m2
11:28 39.9 °F /  4.4 °C 30.9 °F /  -0.6 °C 30.22in /  1023.2hPa North 3.0mph /  4.8km/h 6.0mph /  9.7km/h 70% 0.00in /  0mm 181 W/m2
11:34 40.1 °F /  4.5 °C 31.1 °F /  -0.5 °C 30.21in /  1022.9hPa NNW 3.0mph /  4.8km/h 3.0mph /  4.8km/h 70% 0.00in /  0mm 190 W/m2
11:40 40.2 °F /  4.6 °C 31.2 °F /  -0.4 °C 30.21in /  1022.9hPa NW 3.0mph /  4.8km/h 3.0mph /  4.8km/h 70% 0.00in /  0mm 216 W/m2
11:46 40.3 °F /  4.6 °C 31.3 °F /  -0.4 °C 30.21in /  1022.9hPa NW 3.0mph /  4.8km/h 4.0mph /  6.4km/h 70% 0.00in /  0mm 269 W/m2
11:52 40.6 °F /  4.8 °C 31.6 °F /  -0.2 °C 30.21in /  1022.9hPa WNW 3.0mph /  4.8km/h 3.0mph /  4.8km/h 70% 0.00in /  0mm 271 W/m2
11:58 40.7 °F /  4.8 °C 31.3 °F /  -0.4 °C 30.20in /  1022.6hPa WNW 2.0mph /  3.2km/h 3.0mph /  4.8km/h 69% 0.00in /  0mm 332 W/m2
12:04 40.9 °F /  4.9 °C 31.5 °F /  -0.3 °C 30.21in /  1022.9hPa NNW 3.0mph /  4.8km/h 3.0mph /  4.8km/h 69% 0.00in /  0mm 288 W/m2
12:10 40.9 °F /  4.9 °C 31.5 °F /  -0.3 °C 30.20in /  1022.6hPa NW 3.0mph /  4.8km/h 3.0mph /  4.8km/h 69% 0.00in /  0mm 292 W/m2
12:16 41.1 °F /  5.1 °C 32.1 °F /  0.1 °C 30.20in /  1022.6hPa NW 2.0mph /  3.2km/h 3.0mph /  4.8km/h 70% 0.00in /  0mm 230 W/m2
12:22 41.1 °F /  5.1 °C 31.7 °F /  -0.2 °C 30.19in /  1022.2hPa NW 1.0mph /  1.6km/h 1.0mph /  1.6km/h 69% 0.00in /  0mm 211 W/m2
12:28 41.0 °F /  5 °C 31.6 °F /  -0.2 °C 30.18in /  1021.9hPa NW 2.0mph /  3.2km/h 5.0mph /  8km/h 69% 0.00in /  0mm 220 W/m2
12:34 40.9 °F /  4.9 °C 31.1 °F /  -0.5 °C 30.18in /  1021.9hPa NW 2.0mph /  3.2km/h 2.0mph /  3.2km/h 68% 0.00in /  0mm 197 W/m2
12:40 40.9 °F /  4.9 °C 31.1 °F /  -0.5 °C 30.18in /  1021.9hPa NW 1.0mph /  1.6km/h 3.0mph /  4.8km/h 68% 0.00in /  0mm 179 W/m2
12:46 40.9 °F /  4.9 °C 31.5 °F /  -0.3 °C 30.19in /  1022.2hPa NW 1.0mph /  1.6km/h 3.0mph /  4.8km/h 69% 0.00in /  0mm 151 W/m2
12:52 40.6 °F /  4.8 °C 30.9 °F /  -0.6 °C 30.19in /  1022.2hPa NNW 2.0mph /  3.2km/h 4.0mph /  6.4km/h 68% 0.00in /  0mm 141 W/m2
12:58 40.6 °F /  4.8 °C 30.9 °F /  -0.6 °C 30.18in /  1021.9hPa North 2.0mph /  3.2km/h 4.0mph /  6.4km/h 68% 0.00in /  0mm 155 W/m2
13:04 40.6 °F /  4.8 °C 31.2 °F /  -0.4 °C 30.18in /  1021.9hPa NNW 2.0mph /  3.2km/h 2.0mph /  3.2km/h 69% 0.00in /  0mm 155 W/m2
13:10 40.6 °F /  4.8 °C 31.2 °F /  -0.4 °C 30.17in /  1021.6hPa NNW 1.0mph /  1.6km/h 2.0mph /  3.2km/h 69% 0.00in /  0mm 149 W/m2
13:16 40.6 °F /  4.8 °C 31.2 °F /  -0.4 °C 30.18in /  1021.9hPa NNW 2.0mph /  3.2km/h 2.0mph /  3.2km/h 69% 0.00in /  0mm 123 W/m2
13:22 40.4 °F /  4.7 °C 30.7 °F /  -0.7 °C 30.18in /  1021.9hPa NNW 2.0mph /  3.2km/h 3.0mph /  4.8km/h 68% 0.00in /  0mm 139 W/m2
13:28 40.5 °F /  4.7 °C 31.1 °F /  -0.5 °C 30.19in /  1022.2hPa WNW 2.0mph /  3.2km/h 6.0mph /  9.7km/h 69% 0.00in /  0mm 123 W/m2
13:34 40.4 °F /  4.7 °C 31.0 °F /  -0.6 °C 30.18in /  1021.9hPa WNW 2.0mph /  3.2km/h 3.0mph /  4.8km/h 69% 0.00in /  0mm 146 W/m2
13:40 40.5 °F /  4.7 °C 31.1 °F /  -0.5 °C 30.18in /  1021.9hPa WNW 2.0mph /  3.2km/h 2.0mph /  3.2km/h 69% 0.00in /  0mm 127 W/m2
13:46 40.3 °F /  4.6 °C 30.9 °F /  -0.6 °C 30.18in /  1021.9hPa WNW 2.0mph /  3.2km/h 3.0mph /  4.8km/h 69% 0.00in /  0mm 114 W/m2
13:52 40.2 °F /  4.6 °C 30.5 °F /  -0.8 °C 30.18in /  1021.9hPa NW 2.0mph /  3.2km/h 3.0mph /  4.8km/h 68% 0.00in /  0mm 104 W/m2
13:58 40.2 °F /  4.6 °C 30.8 °F /  -0.7 °C 30.18in /  1021.9hPa NW 2.0mph /  3.2km/h 4.0mph /  6.4km/h 69% 0.00in /  0mm 91 W/m2
14:04 40.2 °F /  4.6 °C 30.8 °F /  -0.7 °C 30.17in /  1021.6hPa NNW 2.0mph /  3.2km/h 5.0mph /  8km/h 69% 0.00in /  0mm 84 W/m2
14:10 40.0 °F /  4.4 °C 30.3 °F /  -0.9 °C 30.17in /  1021.6hPa NW 2.0mph /  3.2km/h 2.0mph /  3.2km/h 68% 0.00in /  0mm 98 W/m2
14:16 40.0 °F /  4.4 °C 30.6 °F /  -0.8 °C 30.17in /  1021.6hPa NW 1.0mph /  1.6km/h 2.0mph /  3.2km/h 69% 0.00in /  0mm 116 W/m2
14:22 40.1 °F /  4.5 °C 30.4 °F /  -0.9 °C 30.17in /  1021.6hPa NW 1.0mph /  1.6km/h 3.0mph /  4.8km/h 68% 0.00in /  0mm 139 W/m2
14:28 40.3 °F /  4.6 °C 30.6 °F /  -0.8 °C 30.17in /  1021.6hPa NW 1.0mph /  1.6km/h 3.0mph /  4.8km/h 68% 0.00in /  0mm 146 W/m2
14:34 40.4 °F /  4.7 °C 30.7 °F /  -0.7 °C 30.17in /  1021.6hPa Calm   2.0mph /  3.2km/h 68% 0.00in /  0mm 160 W/m2
14:40 40.7 °F /  4.8 °C 31.3 °F /  -0.4 °C 30.17in /  1021.6hPa NW 1.0mph /  1.6km/h 1.0mph /  1.6km/h 69% 0.00in /  0mm 144 W/m2
14:46 40.7 °F /  4.8 °C 31.0 °F /  -0.6 °C 30.17in /  1021.6hPa NW 1.0mph /  1.6km/h 1.0mph /  1.6km/h 68% 0.00in /  0mm 142 W/m2
14:52 40.7 °F /  4.8 °C 30.6 °F /  -0.8 °C 30.18in /  1021.9hPa NW 1.0mph /  1.6km/h 1.0mph /  1.6km/h 67% 0.00in /  0mm 144 W/m2
14:58 40.7 °F /  4.8 °C 31.0 °F /  -0.6 °C 30.18in /  1021.9hPa NW 1.0mph /  1.6km/h 2.0mph /  3.2km/h 68% 0.00in /  0mm 148 W/m2
15:04 40.5 °F /  4.7 °C 30.4 °F /  -0.9 °C 30.19in /  1022.2hPa NW 1.0mph /  1.6km/h 2.0mph /  3.2km/h 67% 0.00in /  0mm 153 W/m2
15:10 40.6 °F /  4.8 °C 30.5 °F /  -0.8 °C 30.18in /  1021.9hPa NW 1.0mph /  1.6km/h 1.0mph /  1.6km/h 67% 0.00in /  0mm 167 W/m2
15:16 40.5 °F /  4.7 °C 30.4 °F /  -0.9 °C 30.18in /  1021.9hPa NW 1.0mph /  1.6km/h 1.0mph /  1.6km/h 67% 0.00in /  0mm 165 W/m2
15:22 40.6 °F /  4.8 °C 30.5 °F /  -0.8 °C 30.18in /  1021.9hPa NW 1.0mph /  1.6km/h 2.0mph /  3.2km/h 67% 0.00in /  0mm 162 W/m2
15:28 40.7 °F /  4.8 °C 31.0 °F /  -0.6 °C 30.18in /  1021.9hPa NW 1.0mph /  1.6km/h 3.0mph /  4.8km/h 68% 0.00in /  0mm 156 W/m2
15:34 40.6 °F /  4.8 °C 30.5 °F /  -0.8 °C 30.18in /  1021.9hPa NW 1.0mph /  1.6km/h 1.0mph /  1.6km/h 67% 0.00in /  0mm 174 W/m2
15:40 40.7 °F /  4.8 °C 30.6 °F /  -0.8 °C 30.19in /  1022.2hPa NW 1.0mph /  1.6km/h 1.0mph /  1.6km/h 67% 0.00in /  0mm 163 W/m2
15:46 40.8 °F /  4.9 °C 30.7 °F /  -0.7 °C 30.19in /  1022.2hPa NW 1.0mph /  1.6km/h 3.0mph /  4.8km/h 67% 0.00in /  0mm 139 W/m2
15:52 40.7 °F /  4.8 °C 30.2 °F /  -1 °C 30.19in /  1022.2hPa Calm   1.0mph /  1.6km/h 66% 0.00in /  0mm 104 W/m2
15:58 40.6 °F /  4.8 °C 30.5 °F /  -0.8 °C 30.18in /  1021.9hPa Calm   2.0mph /  3.2km/h 67% 0.00in /  0mm 91 W/m2
16:04 40.4 °F /  4.7 °C 30.3 °F /  -0.9 °C 30.17in /  1021.6hPa NW 1.0mph /  1.6km/h 1.0mph /  1.6km/h 67% 0.00in /  0mm 98 W/m2
16:10 40.4 °F /  4.7 °C 30.7 °F /  -0.7 °C 30.17in /  1021.6hPa Calm     68% 0.00in /  0mm 97 W/m2
16:16 40.4 °F /  4.7 °C 30.7 °F /  -0.7 °C 30.17in /  1021.6hPa NW 1.0mph /  1.6km/h 1.0mph /  1.6km/h 68% 0.00in /  0mm 79 W/m2
16:22 40.2 °F /  4.6 °C 30.1 °F /  -1.1 °C 30.17in /  1021.6hPa NW 1.0mph /  1.6km/h 1.0mph /  1.6km/h 67% 0.00in /  0mm 81 W/m2
16:28 40.2 °F /  4.6 °C 30.1 °F /  -1.1 °C 30.17in /  1021.6hPa Calm   1.0mph /  1.6km/h 67% 0.00in /  0mm 77 W/m2
16:34 40.1 °F /  4.5 °C 30.4 °F /  -0.9 °C 30.17in /  1021.6hPa Calm   2.0mph /  3.2km/h 68% 0.00in /  0mm 86 W/m2
16:40 40.0 °F /  4.4 °C 29.9 °F /  -1.2 °C 30.17in /  1021.6hPa NW 1.0mph /  1.6km/h 1.0mph /  1.6km/h 67% 0.00in /  0mm 67 W/m2
16:46 39.9 °F /  4.4 °C 29.8 °F /  -1.2 °C 30.17in /  1021.6hPa NW 1.0mph /  1.6km/h 1.0mph /  1.6km/h 67% 0.00in /  0mm 56 W/m2
16:52 39.8 °F /  4.3 °C 29.4 °F /  -1.4 °C 30.17in /  1021.6hPa NW 1.0mph /  1.6km/h 2.0mph /  3.2km/h 66% 0.00in /  0mm 51 W/m2
16:58 39.7 °F /  4.3 °C 29.6 °F /  -1.3 °C 30.17in /  1021.6hPa Calm   2.0mph /  3.2km/h 67% 0.00in /  0mm 33 W/m2
17:04 39.6 °F /  4.2 °C 29.5 °F /  -1.4 °C 30.17in /  1021.6hPa Calm     67% 0.00in /  0mm 33 W/m2
17:10 39.5 °F /  4.2 °C 29.8 °F /  -1.2 °C 30.17in /  1021.6hPa Calm     68% 0.00in /  0mm 28 W/m2
17:16 39.4 °F /  4.1 °C 29.3 °F /  -1.5 °C 30.16in /  1021.2hPa Calm     67% 0.00in /  0mm 26 W/m2
17:22 39.3 °F /  4.1 °C 30.0 °F /  -1.1 °C 30.16in /  1021.2hPa Calm     69% 0.00in /  0mm 35 W/m2
17:28 39.1 °F /  3.9 °C 30.1 °F /  -1.1 °C 30.15in /  1020.9hPa Calm   1.0mph /  1.6km/h 70% 0.00in /  0mm 28 W/m2
17:34 39.0 °F /  3.9 °C 29.7 °F /  -1.3 °C 30.15in /  1020.9hPa Calm     69% 0.00in /  0mm 28 W/m2
17:40 39.0 °F /  3.9 °C 29.7 °F /  -1.3 °C 30.16in /  1021.2hPa Calm     69% 0.00in /  0mm 9 W/m2
17:46 38.8 °F /  3.8 °C 29.5 °F /  -1.4 °C 30.16in /  1021.2hPa Calm     69% 0.00in /  0mm 0 W/m2
17:52 38.4 °F /  3.6 °C 29.5 °F /  -1.4 °C 30.16in /  1021.2hPa Calm     70% 0.00in /  0mm 0 W/m2
17:58 38.0 °F /  3.3 °C 29.8 °F /  -1.2 °C 30.17in /  1021.6hPa Calm     72% 0.00in /  0mm 0 W/m2
18:04 37.5 °F /  3.1 °C 29.6 °F /  -1.3 °C 30.17in /  1021.6hPa Calm     73% 0.00in /  0mm 0 W/m2
18:10 37.0 °F /  2.8 °C 29.1 °F /  -1.6 °C 30.17in /  1021.6hPa Calm     73% 0.00in /  0mm 0 W/m2
18:16 36.4 °F /  2.4 °C 28.9 °F /  -1.7 °C 30.17in /  1021.6hPa Calm     74% 0.00in /  0mm 0 W/m2
18:22 35.7 °F /  2.1 °C 28.2 °F /  -2.1 °C 30.17in /  1021.6hPa Calm     74% 0.00in /  0mm 0 W/m2
18:28 35.2 °F /  1.8 °C 28.1 °F /  -2.2 °C 30.17in /  1021.6hPa Calm     75% 0.00in /  0mm 0 W/m2
18:34 34.6 °F /  1.4 °C 27.8 °F /  -2.3 °C 30.17in /  1021.6hPa Calm     76% 0.00in /  0mm 0 W/m2
18:40 34.1 °F /  1.2 °C 27.6 °F /  -2.4 °C 30.17in /  1021.6hPa Calm     77% 0.00in /  0mm 0 W/m2
18:46 33.6 °F /  0.9 °C 27.5 °F /  -2.5 °C 30.18in /  1021.9hPa Calm     78% 0.00in /  0mm 0 W/m2
18:52 33.2 °F /  0.7 °C 27.4 °F /  -2.6 °C 30.19in /  1022.2hPa Calm     79% 0.00in /  0mm 0 W/m2
18:58 32.9 °F /  0.5 °C 27.4 °F /  -2.6 °C 30.18in /  1021.9hPa Calm     80% 0.00in /  0mm 0 W/m2
19:04 32.6 °F /  0.3 °C 27.4 °F /  -2.6 °C 30.19in /  1022.2hPa Calm     81% 0.00in /  0mm 0 W/m2
19:10 32.3 °F /  0.2 °C 27.1 °F /  -2.7 °C 30.19in /  1022.2hPa Calm     81% 0.00in /  0mm 0 W/m2
19:16 32.1 °F /  0.1 °C 27.2 °F /  -2.7 °C 30.19in /  1022.2hPa Calm     82% 0.00in /  0mm 0 W/m2
19:22 31.9 °F /  -0.1 °C 27.0 °F /  -2.8 °C 30.19in /  1022.2hPa Calm     82% 0.00in /  0mm 0 W/m2
19:28 31.5 °F /  -0.3 °C 26.9 °F /  -2.8 °C 30.19in /  1022.2hPa Calm     83% 0.00in /  0mm 0 W/m2
19:34 31.3 °F /  -0.4 °C 26.7 °F /  -2.9 °C 30.18in /  1021.9hPa Calm     83% 0.00in /  0mm 0 W/m2
19:40 31.2 °F /  -0.4 °C 26.9 °F /  -2.8 °C 30.19in /  1022.2hPa Calm     84% 0.00in /  0mm 0 W/m2
19:46 31.1 °F /  -0.5 °C 27.1 °F /  -2.7 °C 30.19in /  1022.2hPa Calm     85% 0.00in /  0mm 0 W/m2
19:52 30.8 °F /  -0.7 °C 26.8 °F /  -2.9 °C 30.19in /  1022.2hPa Calm     85% 0.00in /  0mm 0 W/m2
19:56 30.7 °F /  -0.7 °C 26.7 °F /  -2.9 °C 30.19in /  1022.2hPa Calm     85% 0.00in /  0mm 0 W/m2
20:02 30.5 °F /  -0.8 °C 26.8 °F /  -2.9 °C 30.20in /  1022.6hPa Calm     86% 0.00in /  0mm 0 W/m2
20:08 30.3 °F /  -0.9 °C 26.6 °F /  -3 °C 30.20in /  1022.6hPa Calm     86% 0.00in /  0mm 0 W/m2
20:14 30.1 °F /  -1.1 °C 26.4 °F /  -3.1 °C 30.19in /  1022.2hPa Calm     86% 0.00in /  0mm 0 W/m2
20:20 30.0 °F /  -1.1 °C 26.3 °F /  -3.2 °C 30.20in /  1022.6hPa Calm     86% 0.00in /  0mm 0 W/m2
20:26 29.8 °F /  -1.2 °C 26.1 °F /  -3.3 °C 30.19in /  1022.2hPa Calm     86% 0.00in /  0mm 0 W/m2
20:32 30.0 °F /  -1.1 °C 26.6 °F /  -3 °C 30.19in /  1022.2hPa Calm     87% 0.00in /  0mm 0 W/m2
20:38 30.4 °F /  -0.9 °C 27.0 °F /  -2.8 °C 30.19in /  1022.2hPa Calm     87% 0.00in /  0mm 0 W/m2
20:44 30.6 °F /  -0.8 °C 27.5 °F /  -2.5 °C 30.19in /  1022.2hPa Calm     88% 0.00in /  0mm 0 W/m2
20:50 30.8 °F /  -0.7 °C 27.7 °F /  -2.4 °C 30.19in /  1022.2hPa Calm     88% 0.00in /  0mm 0 W/m2
20:56 30.9 °F /  -0.6 °C 27.8 °F /  -2.3 °C 30.19in /  1022.2hPa Calm     88% 0.00in /  0mm 0 W/m2
21:02 30.9 °F /  -0.6 °C 27.8 °F /  -2.3 °C 30.19in /  1022.2hPa Calm     88% 0.00in /  0mm 0 W/m2
21:08 31.2 °F /  -0.4 °C 28.1 °F /  -2.2 °C 30.19in /  1022.2hPa Calm     88% 0.00in /  0mm 0 W/m2
21:14 31.5 °F /  -0.3 °C 28.4 °F /  -2 °C 30.19in /  1022.2hPa Calm     88% 0.00in /  0mm 0 W/m2
21:20 31.7 °F /  -0.2 °C 28.6 °F /  -1.9 °C 30.19in /  1022.2hPa Calm     88% 0.00in /  0mm 0 W/m2
21:26 31.8 °F /  -0.1 °C 28.9 °F /  -1.7 °C 30.19in /  1022.2hPa Calm     89% 0.00in /  0mm 0 W/m2
21:32 31.8 °F /  -0.1 °C 28.9 °F /  -1.7 °C 30.19in /  1022.2hPa Calm     89% 0.00in /  0mm 0 W/m2
21:38 31.8 °F /  -0.1 °C 28.7 °F /  -1.8 °C 30.19in /  1022.2hPa Calm     88% 0.00in /  0mm 0 W/m2
21:44 31.9 °F /  -0.1 °C 29.0 °F /  -1.7 °C 30.19in /  1022.2hPa Calm     89% 0.00in /  0mm 0 W/m2
21:50 31.9 °F /  -0.1 °C 29.0 °F /  -1.7 °C 30.18in /  1021.9hPa Calm     89% 0.00in /  0mm 0 W/m2
21:56 32.0 °F /  0 °C 29.1 °F /  -1.6 °C 30.17in /  1021.6hPa Calm   1.0mph /  1.6km/h 89% 0.00in /  0mm 0 W/m2
22:02 32.0 °F /  0 °C 29.1 °F /  -1.6 °C 30.17in /  1021.6hPa Calm     89% 0.00in /  0mm 0 W/m2
22:08 32.1 °F /  0.1 °C 29.2 °F /  -1.6 °C 30.17in /  1021.6hPa Calm     89% 0.00in /  0mm 0 W/m2
22:14 32.3 °F /  0.2 °C 29.4 °F /  -1.4 °C 30.17in /  1021.6hPa Calm     89% 0.00in /  0mm 0 W/m2
22:20 32.3 °F /  0.2 °C 29.4 °F /  -1.4 °C 30.17in /  1021.6hPa Calm   1.0mph /  1.6km/h 89% 0.00in /  0mm 0 W/m2
22:26 32.5 °F /  0.3 °C 29.6 °F /  -1.3 °C 30.17in /  1021.6hPa Calm   1.0mph /  1.6km/h 89% 0.00in /  0mm 0 W/m2
22:32 32.6 °F /  0.3 °C 29.7 °F /  -1.3 °C 30.17in /  1021.6hPa Calm     89% 0.00in /  0mm 0 W/m2
22:38 32.7 °F /  0.4 °C 29.5 °F /  -1.4 °C 30.17in /  1021.6hPa Calm     88% 0.00in /  0mm 0 W/m2
22:46 32.8 °F /  0.4 °C 29.6 °F /  -1.3 °C 30.16in /  1021.2hPa Calm     88% 0.00in /  0mm 0 W/m2
22:52 32.8 °F /  0.4 °C 29.6 °F /  -1.3 °C 30.15in /  1020.9hPa Calm     88% 0.00in /  0mm 0 W/m2
22:58 32.8 °F /  0.4 °C 29.6 °F /  -1.3 °C 30.14in /  1020.5hPa NW 1.0mph /  1.6km/h 2.0mph /  3.2km/h 88% 0.00in /  0mm 0 W/m2
23:04 32.8 °F /  0.4 °C 29.6 °F /  -1.3 °C 30.13in /  1020.2hPa NW 1.0mph /  1.6km/h 3.0mph /  4.8km/h 88% 0.00in /  0mm 0 W/m2
23:10 32.8 °F /  0.4 °C 29.4 °F /  -1.4 °C 30.13in /  1020.2hPa NW 1.0mph /  1.6km/h 1.0mph /  1.6km/h 87% 0.00in /  0mm 0 W/m2
23:16 33.0 °F /  0.6 °C 29.6 °F /  -1.3 °C 30.13in /  1020.2hPa NW 1.0mph /  1.6km/h 1.0mph /  1.6km/h 87% 0.00in /  0mm 0 W/m2
23:22 33.0 °F /  0.6 °C 29.6 °F /  -1.3 °C 30.13in /  1020.2hPa NW 1.0mph /  1.6km/h 1.0mph /  1.6km/h 87% 0.00in /  0mm 0 W/m2
23:28 33.0 °F /  0.6 °C 29.6 °F /  -1.3 °C 30.13in /  1020.2hPa Calm   1.0mph /  1.6km/h 87% 0.00in /  0mm 0 W/m2
23:34 32.9 °F /  0.5 °C 29.2 °F /  -1.6 °C 30.13in /  1020.2hPa Calm   2.0mph /  3.2km/h 86% 0.00in /  0mm 0 W/m2
23:40 32.9 °F /  0.5 °C 29.5 °F /  -1.4 °C 30.13in /  1020.2hPa Calm   2.0mph /  3.2km/h 87% 0.00in /  0mm 0 W/m2
23:46 33.0 °F /  0.6 °C 29.3 °F /  -1.5 °C 30.13in /  1020.2hPa ENE 1.0mph /  1.6km/h 2.0mph /  3.2km/h 86% 0.00in /  0mm 0 W/m2
23:52 33.1 °F /  0.6 °C 29.4 °F /  -1.4 °C 30.13in /  1020.2hPa Calm     86% 0.00in /  0mm 0 W/m2
23:58 33.2 °F /  0.7 °C 29.5 °F /  -1.4 °C 30.13in /  1020.2hPa Calm   2.0mph /  3.2km/h 86% 0.00in /  0mm 0 W/m2
Country Meadow, Clay, NY, USA
Compliments of Weather Underground - 2 mb